Descripción del Accidente ASN 06 AUG 2022 Boeing 757-251 (WL) N540US - Atlanta Hartsfield-Jackson International Airport, GA (ATL)
ASN logo
 

Estado:Accident Investigation report not yet completed, but information verified through authorities or other sources.
Fecha:sbado 6 agosto 2022
Hora:21:20
Tipo:Silhouette image of generic B752 model; specific model in this crash may look slightly different
Boeing 757-251 (WL)
Operador:Delta Air Lines
Registración: N540US
Numéro de série: 26487/701
Año de Construcción: 1996-04-02 (26 years 4 months)
Motores: 2 Pratt & Whitney PW2037
Tripulación:Fatalidades: 0 / Ocupantes:
Pasajeros:Fatalidades: 0 / Ocupantes:
Total:Fatalidades: 0 / Ocupantes: 203
Daños en la Aeronave: Considerable
Consecuencias: Repaired
Ubicación:Atlanta Hartsfield-Jackson International Airport, GA (ATL) (   Estados Unidos de América)
Fase: Aterrizaje (LDG)
Naturaleza:Vuelo Doméstico Programado
Aeropuerto de Salida:Fort Lauderdale International Airport, FL (FLL/KFLL), Estados Unidos de América
Aeropuerto de Llegada:Atlanta Hartsfield-Jackson International Airport, GA (ATL/KATL), Estados Unidos de América
Número de Vuelo:DL1696
Descripción:
Delta Air Lines flight 1696, a Boeing 757-251, suffered a tailstrike during a go-around from runway 09R at Atlanta Hartsfield-Jackson International Airport, GA (ATL).
The aircraft circled and landed safely 10 minutes later.

Accident investigation:
Investigating agency: NTSB
Status: Investigation ongoing
Accident number: DCA22LA178

Fuentes:
» FAA
» NTSB

METAR Weather report:
00:52 UTC / 20:52 local time:
KATL 070052Z 32003KT 10SM TS FEW045CB SCT065 SCT080 SCT170 BKN250 29/22 A3020 RMK AO2 SLP216 CONS LTGICCG N-NE AND E TS N-NE AND E MOV STNRY TCU DSNT SE-SW T02940217

02:19 UTC / 21:19 local time:
KATL 070219Z 12009KT 10SM -TSRA SCT009 BKN046CB BKN080 BKN250 23/21 A3029 RMK AO2 PK WND 08026/0201 LTG DSNT NE-S PRESRR FRQ LTGICCG OHD AND ALQDS TS OHD AND ALQDS MOV STNRY CB


Fotos

Add your photo of this accident or aircraft

Map
This map shows the airport of departure and the intended destination of the flight. The line between the airports does not display the exact flight path.
Distance from Fort Lauderdale International Airport, FL to Atlanta Hartsfield-Jackson International Airport, GA as the crow flies is 931 km (582 miles).
Accident location: Approximate; accuracy within a few kilometers.

This information is not presented as the Flight Safety Foundation or the Aviation Safety Network’s opinion as to the cause of the accident. It is preliminary and is based on the facts as they are known at this time.
languages: languages

Share

The Aviation Safety Network is an exclusive service provided by:
Quick Links:

CONNECT WITH US: FSF Facebook FSF Twitter FSF Youtube FSF LinkedIn FSF Instagram

©2023 Flight Safety Foundation

701 N. Fairfax St., Ste. 250
Alexandria, Virginia 22314
www.FlightSafety.org